sensor_id;sensor_type;location;lat;lon;timestamp;temperature;humidity
25342;DHT22;13298;48.792;9.154;2024-03-07T00:00:34;5.70;99.90
25342;DHT22;13298;48.792;9.154;2024-03-07T00:03:00;5.70;99.90
25342;DHT22;13298;48.792;9.154;2024-03-07T00:05:26;5.70;99.90
25342;DHT22;13298;48.792;9.154;2024-03-07T00:07:53;5.70;99.90
25342;DHT22;13298;48.792;9.154;2024-03-07T00:10:19;5.60;99.90
25342;DHT22;13298;48.792;9.154;2024-03-07T00:12:48;5.60;99.90
25342;DHT22;13298;48.792;9.154;2024-03-07T00:15:14;5.60;99.90
25342;DHT22;13298;48.792;9.154;2024-03-07T00:17:41;5.60;99.90
25342;DHT22;13298;48.792;9.154;2024-03-07T00:20:07;5.60;99.90
25342;DHT22;13298;48.792;9.154;2024-03-07T00:22:40;5.60;99.90
25342;DHT22;13298;48.792;9.154;2024-03-07T00:25:07;5.60;99.90
25342;DHT22;13298;48.792;9.154;2024-03-07T00:27:35;5.60;99.90
25342;DHT22;13298;48.792;9.154;2024-03-07T00:30:02;5.50;99.90
25342;DHT22;13298;48.792;9.154;2024-03-07T00:32:28;5.50;99.90
25342;DHT22;13298;48.792;9.154;2024-03-07T00:34:55;5.50;99.90
25342;DHT22;13298;48.792;9.154;2024-03-07T00:37:24;5.50;99.90
25342;DHT22;13298;48.792;9.154;2024-03-07T00:39:52;5.50;99.90
25342;DHT22;13298;48.792;9.154;2024-03-07T00:42:18;5.50;99.90
25342;DHT22;13298;48.792;9.154;2024-03-07T00:44:44;5.40;99.90
25342;DHT22;13298;48.792;9.154;2024-03-07T00:47:10;5.40;99.90
25342;DHT22;13298;48.792;9.154;2024-03-07T00:49:36;5.40;99.90
25342;DHT22;13298;48.792;9.154;2024-03-07T00:52:02;5.40;99.90
25342;DHT22;13298;48.792;9.154;2024-03-07T00:54:28;5.30;99.90
25342;DHT22;13298;48.792;9.154;2024-03-07T00:56:53;5.40;99.90
25342;DHT22;13298;48.792;9.154;2024-03-07T00:59:20;5.30;99.90
25342;DHT22;13298;48.792;9.154;2024-03-07T01:01:46;5.30;99.90
25342;DHT22;13298;48.792;9.154;2024-03-07T01:04:12;5.30;99.90
25342;DHT22;13298;48.792;9.154;2024-03-07T01:06:38;5.30;99.90
25342;DHT22;13298;48.792;9.154;2024-03-07T01:09:04;5.30;99.90
25342;DHT22;13298;48.792;9.154;2024-03-07T01:11:29;5.20;99.90
25342;DHT22;13298;48.792;9.154;2024-03-07T01:13:55;5.10;99.90
25342;DHT22;13298;48.792;9.154;2024-03-07T01:16:22;5.10;99.90
25342;DHT22;13298;48.792;9.154;2024-03-07T01:18:48;5.00;99.90
25342;DHT22;13298;48.792;9.154;2024-03-07T01:21:14;5.00;99.90
25342;DHT22;13298;48.792;9.154;2024-03-07T01:23:40;4.90;99.90
25342;DHT22;13298;48.792;9.154;2024-03-07T01:26:06;4.80;99.90
25342;DHT22;13298;48.792;9.154;2024-03-07T01:28:33;4.70;99.90
25342;DHT22;13298;48.792;9.154;2024-03-07T01:30:59;4.60;99.90
25342;DHT22;13298;48.792;9.154;2024-03-07T01:33:25;4.50;99.90
25342;DHT22;13298;48.792;9.154;2024-03-07T01:35:50;4.40;99.90
25342;DHT22;13298;48.792;9.154;2024-03-07T01:38:16;4.30;99.90
25342;DHT22;13298;48.792;9.154;2024-03-07T01:40:43;4.30;99.90
25342;DHT22;13298;48.792;9.154;2024-03-07T01:43:10;4.20;99.90
25342;DHT22;13298;48.792;9.154;2024-03-07T01:45:36;4.10;99.90
25342;DHT22;13298;48.792;9.154;2024-03-07T01:48:07;4.10;99.90
25342;DHT22;13298;48.792;9.154;2024-03-07T01:50:35;4.00;99.90
25342;DHT22;13298;48.792;9.154;2024-03-07T01:53:04;3.90;99.90
25342;DHT22;13298;48.792;9.154;2024-03-07T01:55:32;3.80;99.90
25342;DHT22;13298;48.792;9.154;2024-03-07T01:57:59;3.80;99.90
25342;DHT22;13298;48.792;9.154;2024-03-07T02:00:27;3.70;99.90
25342;DHT22;13298;48.792;9.154;2024-03-07T02:02:53;3.70;99.90
25342;DHT22;13298;48.792;9.154;2024-03-07T02:05:20;3.60;99.90
25342;DHT22;13298;48.792;9.154;2024-03-07T02:07:47;3.50;99.90
25342;DHT22;13298;48.792;9.154;2024-03-07T02:10:13;3.50;99.90
25342;DHT22;13298;48.792;9.154;2024-03-07T02:12:38;3.40;99.90
25342;DHT22;13298;48.792;9.154;2024-03-07T02:15:04;3.40;99.90
25342;DHT22;13298;48.792;9.154;2024-03-07T02:17:30;3.30;99.90
25342;DHT22;13298;48.792;9.154;2024-03-07T02:19:57;3.20;99.90
25342;DHT22;13298;48.792;9.154;2024-03-07T02:22:24;3.20;99.90
25342;DHT22;13298;48.792;9.154;2024-03-07T02:24:51;3.10;99.90
25342;DHT22;13298;48.792;9.154;2024-03-07T02:27:17;3.00;99.90
25342;DHT22;13298;48.792;9.154;2024-03-07T02:29:43;2.90;99.90
25342;DHT22;13298;48.792;9.154;2024-03-07T02:32:09;2.90;99.90
25342;DHT22;13298;48.792;9.154;2024-03-07T02:34:35;2.90;99.90
25342;DHT22;13298;48.792;9.154;2024-03-07T02:37:01;2.80;99.90
25342;DHT22;13298;48.792;9.154;2024-03-07T02:39:27;2.80;99.90
25342;DHT22;13298;48.792;9.154;2024-03-07T02:41:52;2.70;99.90
25342;DHT22;13298;48.792;9.154;2024-03-07T02:44:19;2.60;99.90
25342;DHT22;13298;48.792;9.154;2024-03-07T02:46:45;2.60;99.90
25342;DHT22;13298;48.792;9.154;2024-03-07T02:49:13;2.50;99.90
25342;DHT22;13298;48.792;9.154;2024-03-07T02:51:40;2.50;99.90
25342;DHT22;13298;48.792;9.154;2024-03-07T02:54:07;2.50;99.90
25342;DHT22;13298;48.792;9.154;2024-03-07T02:56:33;2.40;99.90
25342;DHT22;13298;48.792;9.154;2024-03-07T02:58:59;2.40;99.90
25342;DHT22;13298;48.792;9.154;2024-03-07T03:01:25;2.40;99.90
25342;DHT22;13298;48.792;9.154;2024-03-07T03:03:51;2.30;99.90
25342;DHT22;13298;48.792;9.154;2024-03-07T03:06:17;2.30;99.90
25342;DHT22;13298;48.792;9.154;2024-03-07T03:08:46;2.30;99.90
25342;DHT22;13298;48.792;9.154;2024-03-07T03:11:12;2.20;99.90
25342;DHT22;13298;48.792;9.154;2024-03-07T03:13:39;2.20;99.90
25342;DHT22;13298;48.792;9.154;2024-03-07T03:16:06;2.20;99.90
25342;DHT22;13298;48.792;9.154;2024-03-07T03:18:35;2.10;99.90
25342;DHT22;13298;48.792;9.154;2024-03-07T03:21:01;2.10;99.90
25342;DHT22;13298;48.792;9.154;2024-03-07T03:23:28;2.10;99.90
25342;DHT22;13298;48.792;9.154;2024-03-07T03:25:54;2.10;99.90
25342;DHT22;13298;48.792;9.154;2024-03-07T03:28:21;2.10;99.90
25342;DHT22;13298;48.792;9.154;2024-03-07T03:30:49;2.00;99.90
25342;DHT22;13298;48.792;9.154;2024-03-07T03:33:15;2.00;99.90
25342;DHT22;13298;48.792;9.154;2024-03-07T03:35:41;2.00;99.90
25342;DHT22;13298;48.792;9.154;2024-03-07T03:38:07;2.00;99.90
25342;DHT22;13298;48.792;9.154;2024-03-07T03:40:33;1.90;99.90
25342;DHT22;13298;48.792;9.154;2024-03-07T03:43:00;1.80;99.90
25342;DHT22;13298;48.792;9.154;2024-03-07T03:45:28;1.90;99.90
25342;DHT22;13298;48.792;9.154;2024-03-07T03:47:54;1.80;99.90
25342;DHT22;13298;48.792;9.154;2024-03-07T03:50:21;1.80;99.90
25342;DHT22;13298;48.792;9.154;2024-03-07T03:52:50;1.80;99.90
25342;DHT22;13298;48.792;9.154;2024-03-07T03:55:16;1.80;99.90
25342;DHT22;13298;48.792;9.154;2024-03-07T03:57:43;1.80;99.90
25342;DHT22;13298;48.792;9.154;2024-03-07T04:00:10;1.90;99.90
25342;DHT22;13298;48.792;9.154;2024-03-07T04:02:40;1.90;99.90
25342;DHT22;13298;48.792;9.154;2024-03-07T04:05:08;2.00;99.90
25342;DHT22;13298;48.792;9.154;2024-03-07T04:07:35;2.10;99.90
25342;DHT22;13298;48.792;9.154;2024-03-07T04:10:01;2.10;99.90
25342;DHT22;13298;48.792;9.154;2024-03-07T04:12:28;2.10;99.90
25342;DHT22;13298;48.792;9.154;2024-03-07T04:14:54;2.20;99.90
25342;DHT22;13298;48.792;9.154;2024-03-07T04:17:21;2.20;99.90
25342;DHT22;13298;48.792;9.154;2024-03-07T04:19:46;2.20;99.90
25342;DHT22;13298;48.792;9.154;2024-03-07T04:22:12;2.20;99.90
25342;DHT22;13298;48.792;9.154;2024-03-07T04:24:38;2.20;99.90
25342;DHT22;13298;48.792;9.154;2024-03-07T04:27:06;2.20;99.90
25342;DHT22;13298;48.792;9.154;2024-03-07T04:29:32;2.20;99.90
25342;DHT22;13298;48.792;9.154;2024-03-07T04:31:59;2.20;99.90
25342;DHT22;13298;48.792;9.154;2024-03-07T04:34:27;2.20;99.90
25342;DHT22;13298;48.792;9.154;2024-03-07T04:37:00;2.20;99.90
25342;DHT22;13298;48.792;9.154;2024-03-07T04:39:29;2.20;99.90
25342;DHT22;13298;48.792;9.154;2024-03-07T04:42:05;2.20;99.90
25342;DHT22;13298;48.792;9.154;2024-03-07T04:44:32;2.10;99.90
25342;DHT22;13298;48.792;9.154;2024-03-07T04:46:59;2.00;99.90
25342;DHT22;13298;48.792;9.154;2024-03-07T04:49:28;2.00;99.90
25342;DHT22;13298;48.792;9.154;2024-03-07T04:51:55;2.00;99.90
25342;DHT22;13298;48.792;9.154;2024-03-07T04:54:24;1.90;99.90
25342;DHT22;13298;48.792;9.154;2024-03-07T04:56:51;1.80;99.90
25342;DHT22;13298;48.792;9.154;2024-03-07T04:59:18;1.80;99.90
25342;DHT22;13298;48.792;9.154;2024-03-07T05:01:46;1.70;99.90
25342;DHT22;13298;48.792;9.154;2024-03-07T05:04:13;1.60;99.90
25342;DHT22;13298;48.792;9.154;2024-03-07T05:06:40;1.60;99.90
25342;DHT22;13298;48.792;9.154;2024-03-07T05:09:07;1.50;99.90
25342;DHT22;13298;48.792;9.154;2024-03-07T05:11:46;1.40;99.90
25342;DHT22;13298;48.792;9.154;2024-03-07T05:14:12;1.40;99.90
25342;DHT22;13298;48.792;9.154;2024-03-07T05:16:38;1.30;99.90
25342;DHT22;13298;48.792;9.154;2024-03-07T05:19:03;1.30;99.90
25342;DHT22;13298;48.792;9.154;2024-03-07T05:21:30;1.20;99.90
25342;DHT22;13298;48.792;9.154;2024-03-07T05:24:03;1.20;99.90
25342;DHT22;13298;48.792;9.154;2024-03-07T05:26:30;1.10;99.90
25342;DHT22;13298;48.792;9.154;2024-03-07T05:29:08;1.10;99.90
25342;DHT22;13298;48.792;9.154;2024-03-07T05:31:36;1.10;99.90
25342;DHT22;13298;48.792;9.154;2024-03-07T05:34:03;1.00;99.90
25342;DHT22;13298;48.792;9.154;2024-03-07T05:36:31;1.00;99.90
25342;DHT22;13298;48.792;9.154;2024-03-07T05:38:58;1.00;99.90
25342;DHT22;13298;48.792;9.154;2024-03-07T05:41:25;1.00;99.90
25342;DHT22;13298;48.792;9.154;2024-03-07T05:43:53;1.00;99.90
25342;DHT22;13298;48.792;9.154;2024-03-07T05:46:19;1.00;99.90
25342;DHT22;13298;48.792;9.154;2024-03-07T05:48:45;0.90;99.90
25342;DHT22;13298;48.792;9.154;2024-03-07T05:51:15;0.90;99.90
25342;DHT22;13298;48.792;9.154;2024-03-07T05:53:41;0.90;99.90
25342;DHT22;13298;48.792;9.154;2024-03-07T05:56:07;0.80;99.90
25342;DHT22;13298;48.792;9.154;2024-03-07T05:58:33;0.80;99.90
25342;DHT22;13298;48.792;9.154;2024-03-07T06:00:59;0.80;99.90
25342;DHT22;13298;48.792;9.154;2024-03-07T06:03:25;0.90;99.90
25342;DHT22;13298;48.792;9.154;2024-03-07T06:05:51;0.90;99.90
25342;DHT22;13298;48.792;9.154;2024-03-07T06:08:18;0.90;99.90
25342;DHT22;13298;48.792;9.154;2024-03-07T06:10:47;0.90;99.90
25342;DHT22;13298;48.792;9.154;2024-03-07T06:13:15;0.90;99.90
25342;DHT22;13298;48.792;9.154;2024-03-07T06:15:45;0.90;99.90
25342;DHT22;13298;48.792;9.154;2024-03-07T06:18:12;0.90;99.90
25342;DHT22;13298;48.792;9.154;2024-03-07T06:20:41;0.90;99.90
25342;DHT22;13298;48.792;9.154;2024-03-07T06:23:07;1.00;99.90
25342;DHT22;13298;48.792;9.154;2024-03-07T06:25:34;1.00;99.90
25342;DHT22;13298;48.792;9.154;2024-03-07T06:28:03;1.00;99.90
25342;DHT22;13298;48.792;9.154;2024-03-07T06:30:38;1.00;99.90
25342;DHT22;13298;48.792;9.154;2024-03-07T06:33:05;1.00;99.90
25342;DHT22;13298;48.792;9.154;2024-03-07T06:35:31;1.10;99.90
25342;DHT22;13298;48.792;9.154;2024-03-07T06:37:57;1.10;99.90
25342;DHT22;13298;48.792;9.154;2024-03-07T06:40:23;1.10;99.90
25342;DHT22;13298;48.792;9.154;2024-03-07T06:42:50;1.10;99.90
25342;DHT22;13298;48.792;9.154;2024-03-07T06:45:18;1.20;99.90
25342;DHT22;13298;48.792;9.154;2024-03-07T06:47:44;1.20;99.90
25342;DHT22;13298;48.792;9.154;2024-03-07T06:50:09;1.20;99.90
25342;DHT22;13298;48.792;9.154;2024-03-07T06:52:39;1.30;99.90
25342;DHT22;13298;48.792;9.154;2024-03-07T06:55:06;1.30;99.90
25342;DHT22;13298;48.792;9.154;2024-03-07T06:57:33;1.40;99.90
25342;DHT22;13298;48.792;9.154;2024-03-07T06:59:59;1.40;99.90
25342;DHT22;13298;48.792;9.154;2024-03-07T07:02:25;1.40;99.90
25342;DHT22;13298;48.792;9.154;2024-03-07T07:04:53;1.50;99.90
25342;DHT22;13298;48.792;9.154;2024-03-07T07:07:19;1.50;99.90
25342;DHT22;13298;48.792;9.154;2024-03-07T07:09:45;1.50;99.90
25342;DHT22;13298;48.792;9.154;2024-03-07T07:12:11;1.60;99.90
25342;DHT22;13298;48.792;9.154;2024-03-07T07:14:37;1.60;99.90
25342;DHT22;13298;48.792;9.154;2024-03-07T07:17:04;1.60;99.90
25342;DHT22;13298;48.792;9.154;2024-03-07T07:19:30;1.60;99.90
25342;DHT22;13298;48.792;9.154;2024-03-07T07:21:55;1.70;99.90
25342;DHT22;13298;48.792;9.154;2024-03-07T07:24:22;1.80;99.90
25342;DHT22;13298;48.792;9.154;2024-03-07T07:26:52;1.80;99.90
25342;DHT22;13298;48.792;9.154;2024-03-07T07:29:17;1.90;99.90
25342;DHT22;13298;48.792;9.154;2024-03-07T07:31:43;1.90;99.90
25342;DHT22;13298;48.792;9.154;2024-03-07T07:34:10;2.00;99.90
25342;DHT22;13298;48.792;9.154;2024-03-07T07:36:36;2.00;99.90
25342;DHT22;13298;48.792;9.154;2024-03-07T07:39:02;2.20;99.90
25342;DHT22;13298;48.792;9.154;2024-03-07T07:41:28;2.20;99.90
25342;DHT22;13298;48.792;9.154;2024-03-07T07:43:56;2.40;99.90
25342;DHT22;13298;48.792;9.154;2024-03-07T07:46:22;2.50;99.90
25342;DHT22;13298;48.792;9.154;2024-03-07T07:48:48;2.60;99.90
25342;DHT22;13298;48.792;9.154;2024-03-07T07:51:14;2.70;99.90
25342;DHT22;13298;48.792;9.154;2024-03-07T07:53:39;2.70;99.90
25342;DHT22;13298;48.792;9.154;2024-03-07T07:56:05;2.90;99.90
25342;DHT22;13298;48.792;9.154;2024-03-07T07:58:33;2.90;99.90
25342;DHT22;13298;48.792;9.154;2024-03-07T08:00:59;2.90;99.90
25342;DHT22;13298;48.792;9.154;2024-03-07T08:03:24;3.10;99.90
25342;DHT22;13298;48.792;9.154;2024-03-07T08:05:50;3.10;99.90
25342;DHT22;13298;48.792;9.154;2024-03-07T08:08:16;3.20;99.90
25342;DHT22;13298;48.792;9.154;2024-03-07T08:10:43;3.30;99.90
25342;DHT22;13298;48.792;9.154;2024-03-07T08:13:11;3.40;99.90
25342;DHT22;13298;48.792;9.154;2024-03-07T08:15:38;3.60;99.90
25342;DHT22;13298;48.792;9.154;2024-03-07T08:18:04;3.70;99.90
25342;DHT22;13298;48.792;9.154;2024-03-07T08:20:36;3.80;99.90
25342;DHT22;13298;48.792;9.154;2024-03-07T08:23:02;3.80;99.90
25342;DHT22;13298;48.792;9.154;2024-03-07T08:25:29;3.80;99.90
25342;DHT22;13298;48.792;9.154;2024-03-07T08:27:56;3.80;99.90
25342;DHT22;13298;48.792;9.154;2024-03-07T08:30:23;3.70;99.90
25342;DHT22;13298;48.792;9.154;2024-03-07T08:32:54;3.60;99.90
25342;DHT22;13298;48.792;9.154;2024-03-07T08:35:21;3.70;99.90
25342;DHT22;13298;48.792;9.154;2024-03-07T08:37:49;3.80;99.90
25342;DHT22;13298;48.792;9.154;2024-03-07T08:40:18;4.00;99.90
25342;DHT22;13298;48.792;9.154;2024-03-07T08:42:49;4.20;99.90
25342;DHT22;13298;48.792;9.154;2024-03-07T08:45:22;4.40;99.90
25342;DHT22;13298;48.792;9.154;2024-03-07T08:47:53;4.50;99.90
25342;DHT22;13298;48.792;9.154;2024-03-07T08:50:20;4.60;99.90
25342;DHT22;13298;48.792;9.154;2024-03-07T08:52:47;4.70;99.90
25342;DHT22;13298;48.792;9.154;2024-03-07T08:55:19;4.90;99.90
25342;DHT22;13298;48.792;9.154;2024-03-07T08:57:45;5.00;99.90
25342;DHT22;13298;48.792;9.154;2024-03-07T09:00:14;5.10;99.90
25342;DHT22;13298;48.792;9.154;2024-03-07T09:02:51;5.10;99.90
25342;DHT22;13298;48.792;9.154;2024-03-07T09:05:23;5.20;99.90
25342;DHT22;13298;48.792;9.154;2024-03-07T09:07:50;5.30;99.90
25342;DHT22;13298;48.792;9.154;2024-03-07T09:10:17;5.40;99.90
25342;DHT22;13298;48.792;9.154;2024-03-07T09:12:43;5.50;99.90
25342;DHT22;13298;48.792;9.154;2024-03-07T09:15:10;5.50;99.90
25342;DHT22;13298;48.792;9.154;2024-03-07T09:17:39;5.60;99.90
25342;DHT22;13298;48.792;9.154;2024-03-07T09:20:05;5.70;99.90
25342;DHT22;13298;48.792;9.154;2024-03-07T09:22:32;5.90;99.90
25342;DHT22;13298;48.792;9.154;2024-03-07T09:24:58;6.10;99.90
25342;DHT22;13298;48.792;9.154;2024-03-07T09:27:24;6.30;99.90
25342;DHT22;13298;48.792;9.154;2024-03-07T09:29:50;6.40;99.90
25342;DHT22;13298;48.792;9.154;2024-03-07T09:32:16;6.60;99.90
25342;DHT22;13298;48.792;9.154;2024-03-07T09:34:42;6.60;99.90
25342;DHT22;13298;48.792;9.154;2024-03-07T09:37:08;6.80;99.90
25342;DHT22;13298;48.792;9.154;2024-03-07T09:39:34;7.00;99.90
25342;DHT22;13298;48.792;9.154;2024-03-07T09:42:01;7.00;99.90
25342;DHT22;13298;48.792;9.154;2024-03-07T09:44:28;7.00;99.90
25342;DHT22;13298;48.792;9.154;2024-03-07T09:46:59;7.00;99.90
25342;DHT22;13298;48.792;9.154;2024-03-07T09:49:28;7.00;99.90
25342;DHT22;13298;48.792;9.154;2024-03-07T09:51:55;7.10;99.90
25342;DHT22;13298;48.792;9.154;2024-03-07T09:54:23;7.20;99.90
25342;DHT22;13298;48.792;9.154;2024-03-07T09:56:59;7.30;99.90
25342;DHT22;13298;48.792;9.154;2024-03-07T09:59:28;7.30;99.90
25342;DHT22;13298;48.792;9.154;2024-03-07T10:01:57;7.30;99.90
25342;DHT22;13298;48.792;9.154;2024-03-07T10:04:37;7.30;99.90
25342;DHT22;13298;48.792;9.154;2024-03-07T10:07:07;7.20;99.90
25342;DHT22;13298;48.792;9.154;2024-03-07T10:10:19;7.20;99.90
25342;DHT22;13298;48.792;9.154;2024-03-07T10:12:45;7.30;99.90
25342;DHT22;13298;48.792;9.154;2024-03-07T10:15:11;7.30;99.90
25342;DHT22;13298;48.792;9.154;2024-03-07T10:17:39;7.00;99.90
25342;DHT22;13298;48.792;9.154;2024-03-07T10:20:06;6.80;99.90
25342;DHT22;13298;48.792;9.154;2024-03-07T10:22:36;6.50;99.90
25342;DHT22;13298;48.792;9.154;2024-03-07T10:25:03;6.40;99.90
25342;DHT22;13298;48.792;9.154;2024-03-07T10:27:29;6.40;99.90
25342;DHT22;13298;48.792;9.154;2024-03-07T10:29:55;6.30;99.90
25342;DHT22;13298;48.792;9.154;2024-03-07T10:32:24;6.20;99.90
25342;DHT22;13298;48.792;9.154;2024-03-07T10:34:51;6.20;99.90
25342;DHT22;13298;48.792;9.154;2024-03-07T10:37:18;6.30;99.90
25342;DHT22;13298;48.792;9.154;2024-03-07T10:39:49;6.60;99.90
25342;DHT22;13298;48.792;9.154;2024-03-07T10:42:16;7.00;99.90
25342;DHT22;13298;48.792;9.154;2024-03-07T10:44:45;7.40;99.90
25342;DHT22;13298;48.792;9.154;2024-03-07T10:47:18;7.80;99.90
25342;DHT22;13298;48.792;9.154;2024-03-07T10:52:54;8.40;99.90
25342;DHT22;13298;48.792;9.154;2024-03-07T10:55:37;8.60;99.90
25342;DHT22;13298;48.792;9.154;2024-03-07T10:58:17;8.70;99.90
25342;DHT22;13298;48.792;9.154;2024-03-07T11:00:50;8.80;99.90
25342;DHT22;13298;48.792;9.154;2024-03-07T11:03:19;8.90;99.90
25342;DHT22;13298;48.792;9.154;2024-03-07T11:05:46;9.10;99.90
25342;DHT22;13298;48.792;9.154;2024-03-07T11:08:13;9.10;99.90
25342;DHT22;13298;48.792;9.154;2024-03-07T11:10:39;9.10;99.90
25342;DHT22;13298;48.792;9.154;2024-03-07T11:13:10;9.20;99.90
25342;DHT22;13298;48.792;9.154;2024-03-07T11:15:42;9.30;99.90
25342;DHT22;13298;48.792;9.154;2024-03-07T11:18:09;9.40;99.90
25342;DHT22;13298;48.792;9.154;2024-03-07T11:20:39;9.60;99.90
25342;DHT22;13298;48.792;9.154;2024-03-07T11:23:27;9.70;99.90
25342;DHT22;13298;48.792;9.154;2024-03-07T11:26:14;9.70;99.90
25342;DHT22;13298;48.792;9.154;2024-03-07T11:28:41;9.70;99.90
25342;DHT22;13298;48.792;9.154;2024-03-07T11:31:13;9.60;99.90
25342;DHT22;13298;48.792;9.154;2024-03-07T11:33:40;9.60;99.90
25342;DHT22;13298;48.792;9.154;2024-03-07T11:36:10;9.60;99.90
25342;DHT22;13298;48.792;9.154;2024-03-07T11:38:48;9.70;99.90
25342;DHT22;13298;48.792;9.154;2024-03-07T11:41:14;9.80;99.90
25342;DHT22;13298;48.792;9.154;2024-03-07T11:43:43;9.70;99.90
25342;DHT22;13298;48.792;9.154;2024-03-07T11:46:08;9.70;99.90
25342;DHT22;13298;48.792;9.154;2024-03-07T11:48:42;9.70;99.90
25342;DHT22;13298;48.792;9.154;2024-03-07T11:51:11;9.70;99.90
25342;DHT22;13298;48.792;9.154;2024-03-07T11:53:38;9.80;99.90
25342;DHT22;13298;48.792;9.154;2024-03-07T11:56:05;9.80;99.90
25342;DHT22;13298;48.792;9.154;2024-03-07T11:58:41;9.80;99.90
25342;DHT22;13298;48.792;9.154;2024-03-07T12:01:10;9.80;99.90
25342;DHT22;13298;48.792;9.154;2024-03-07T12:03:39;9.80;99.90
25342;DHT22;13298;48.792;9.154;2024-03-07T12:06:05;9.90;99.90
25342;DHT22;13298;48.792;9.154;2024-03-07T12:08:30;9.80;99.90
25342;DHT22;13298;48.792;9.154;2024-03-07T12:10:56;9.80;99.90
25342;DHT22;13298;48.792;9.154;2024-03-07T12:13:23;9.70;99.90
25342;DHT22;13298;48.792;9.154;2024-03-07T12:15:50;9.50;99.90
25342;DHT22;13298;48.792;9.154;2024-03-07T12:18:21;9.40;99.90
25342;DHT22;13298;48.792;9.154;2024-03-07T12:20:48;9.40;99.90
25342;DHT22;13298;48.792;9.154;2024-03-07T12:23:21;9.40;99.90
25342;DHT22;13298;48.792;9.154;2024-03-07T12:26:02;9.30;99.90
25342;DHT22;13298;48.792;9.154;2024-03-07T12:28:28;9.20;99.90
25342;DHT22;13298;48.792;9.154;2024-03-07T12:30:58;9.20;99.90
25342;DHT22;13298;48.792;9.154;2024-03-07T12:33:28;9.10;99.90
25342;DHT22;13298;48.792;9.154;2024-03-07T12:35:56;9.10;99.90
25342;DHT22;13298;48.792;9.154;2024-03-07T12:38:31;9.00;99.90
25342;DHT22;13298;48.792;9.154;2024-03-07T12:41:07;9.00;99.90
25342;DHT22;13298;48.792;9.154;2024-03-07T12:43:40;9.10;99.90
25342;DHT22;13298;48.792;9.154;2024-03-07T12:46:10;9.00;99.90
25342;DHT22;13298;48.792;9.154;2024-03-07T12:48:37;9.00;99.90
25342;DHT22;13298;48.792;9.154;2024-03-07T12:51:04;9.10;99.90
25342;DHT22;13298;48.792;9.154;2024-03-07T12:53:30;9.20;99.90
25342;DHT22;13298;48.792;9.154;2024-03-07T12:55:57;9.30;99.90
25342;DHT22;13298;48.792;9.154;2024-03-07T12:58:23;9.30;99.90
25342;DHT22;13298;48.792;9.154;2024-03-07T13:00:55;9.30;99.90
25342;DHT22;13298;48.792;9.154;2024-03-07T13:03:24;9.20;99.90
25342;DHT22;13298;48.792;9.154;2024-03-07T13:05:56;9.30;99.90
25342;DHT22;13298;48.792;9.154;2024-03-07T13:08:26;9.30;99.90
25342;DHT22;13298;48.792;9.154;2024-03-07T13:10:54;9.40;99.90
25342;DHT22;13298;48.792;9.154;2024-03-07T13:13:21;9.40;99.90
25342;DHT22;13298;48.792;9.154;2024-03-07T13:15:46;9.50;99.90
25342;DHT22;13298;48.792;9.154;2024-03-07T13:18:13;9.40;99.90
25342;DHT22;13298;48.792;9.154;2024-03-07T13:20:39;9.30;99.90
25342;DHT22;13298;48.792;9.154;2024-03-07T13:23:08;9.20;99.90
25342;DHT22;13298;48.792;9.154;2024-03-07T13:25:34;9.10;99.90
25342;DHT22;13298;48.792;9.154;2024-03-07T13:28:04;9.00;99.90
25342;DHT22;13298;48.792;9.154;2024-03-07T13:30:39;8.90;99.90
25342;DHT22;13298;48.792;9.154;2024-03-07T13:33:05;8.90;99.90
25342;DHT22;13298;48.792;9.154;2024-03-07T13:35:31;8.80;99.90
25342;DHT22;13298;48.792;9.154;2024-03-07T13:37:57;8.70;99.90
25342;DHT22;13298;48.792;9.154;2024-03-07T13:40:24;8.70;99.90
25342;DHT22;13298;48.792;9.154;2024-03-07T13:42:56;8.60;99.90
25342;DHT22;13298;48.792;9.154;2024-03-07T13:45:29;8.60;99.90
25342;DHT22;13298;48.792;9.154;2024-03-07T13:48:07;8.40;99.90
25342;DHT22;13298;48.792;9.154;2024-03-07T13:50:34;8.40;99.90
25342;DHT22;13298;48.792;9.154;2024-03-07T13:53:00;8.30;99.90
25342;DHT22;13298;48.792;9.154;2024-03-07T13:59:16;8.20;99.90
25342;DHT22;13298;48.792;9.154;2024-03-07T14:11:59;8.10;99.90
25342;DHT22;13298;48.792;9.154;2024-03-07T14:15:12;8.10;99.90
25342;DHT22;13298;48.792;9.154;2024-03-07T14:18:00;8.20;99.90
25342;DHT22;13298;48.792;9.154;2024-03-07T14:27:27;8.40;99.90
25342;DHT22;13298;48.792;9.154;2024-03-07T14:33:06;8.60;99.90
25342;DHT22;13298;48.792;9.154;2024-03-07T14:35:58;8.60;99.90
25342;DHT22;13298;48.792;9.154;2024-03-07T14:38:39;8.70;99.90
25342;DHT22;13298;48.792;9.154;2024-03-07T14:41:09;8.70;99.90
25342;DHT22;13298;48.792;9.154;2024-03-07T14:43:37;8.70;99.90
25342;DHT22;13298;48.792;9.154;2024-03-07T14:46:04;8.70;99.90
25342;DHT22;13298;48.792;9.154;2024-03-07T14:48:30;8.70;99.90
25342;DHT22;13298;48.792;9.154;2024-03-07T14:50:56;8.80;99.90
25342;DHT22;13298;48.792;9.154;2024-03-07T14:53:22;8.80;99.90
25342;DHT22;13298;48.792;9.154;2024-03-07T14:55:48;8.80;99.90
25342;DHT22;13298;48.792;9.154;2024-03-07T14:58:14;8.80;99.90
25342;DHT22;13298;48.792;9.154;2024-03-07T15:00:42;8.80;99.90
25342;DHT22;13298;48.792;9.154;2024-03-07T15:03:15;8.80;99.90
25342;DHT22;13298;48.792;9.154;2024-03-07T15:05:42;8.80;99.90
25342;DHT22;13298;48.792;9.154;2024-03-07T15:08:10;8.80;99.90
25342;DHT22;13298;48.792;9.154;2024-03-07T15:10:38;8.80;99.90
25342;DHT22;13298;48.792;9.154;2024-03-07T15:13:07;8.80;99.90
25342;DHT22;13298;48.792;9.154;2024-03-07T15:15:36;8.90;99.90
25342;DHT22;13298;48.792;9.154;2024-03-07T15:18:01;8.90;99.90
25342;DHT22;13298;48.792;9.154;2024-03-07T15:20:27;8.90;99.90
25342;DHT22;13298;48.792;9.154;2024-03-07T15:23:02;8.80;99.90
25342;DHT22;13298;48.792;9.154;2024-03-07T15:25:34;8.70;99.90
25342;DHT22;13298;48.792;9.154;2024-03-07T15:27:59;8.50;99.90
25342;DHT22;13298;48.792;9.154;2024-03-07T15:30:27;8.50;99.90
25342;DHT22;13298;48.792;9.154;2024-03-07T15:33:03;8.40;99.90
25342;DHT22;13298;48.792;9.154;2024-03-07T15:35:29;8.40;99.90
25342;DHT22;13298;48.792;9.154;2024-03-07T15:37:56;8.40;99.90
25342;DHT22;13298;48.792;9.154;2024-03-07T15:40:23;8.50;99.90
25342;DHT22;13298;48.792;9.154;2024-03-07T15:42:54;8.50;99.90
25342;DHT22;13298;48.792;9.154;2024-03-07T15:45:26;8.50;99.90
25342;DHT22;13298;48.792;9.154;2024-03-07T15:50:21;8.50;99.90
25342;DHT22;13298;48.792;9.154;2024-03-07T15:52:49;8.50;99.90
25342;DHT22;13298;48.792;9.154;2024-03-07T15:55:19;8.40;99.90
25342;DHT22;13298;48.792;9.154;2024-03-07T15:57:53;8.40;99.90
25342;DHT22;13298;48.792;9.154;2024-03-07T16:00:22;8.40;99.90
25342;DHT22;13298;48.792;9.154;2024-03-07T16:02:56;8.40;99.90
25342;DHT22;13298;48.792;9.154;2024-03-07T16:05:40;8.40;99.90
25342;DHT22;13298;48.792;9.154;2024-03-07T16:08:09;8.40;99.90
25342;DHT22;13298;48.792;9.154;2024-03-07T16:10:37;8.40;99.90
25342;DHT22;13298;48.792;9.154;2024-03-07T16:13:09;8.30;99.90
25342;DHT22;13298;48.792;9.154;2024-03-07T16:15:38;8.10;99.90
25342;DHT22;13298;48.792;9.154;2024-03-07T16:18:04;7.90;99.90
25342;DHT22;13298;48.792;9.154;2024-03-07T16:20:32;7.80;99.90